PWSweather.com
Personal Weather Stations
Station Observations
GRD01
Warsaw, LesznoPL 05-084

WarsawLesznoPL 05-084

Lat: 52.257404, Lon: 20.564847

Elevation: 298

Station Type: WH3080

http://pogoda.kampinos.waw.pl

High Low Average
Temperature 82.8°F28.2°C 55.4°F13.0°C 70.7°F21.5°C
Dew Point 56.4°F13.6°C 49.2°F9.6°C 52.1°F11.2°C
Winds 15.2 mph 24.5 kmh 1.6 mph 2.6 kmh 4.0 mph ENE6.4 kmh ENE
Wind Gusts 17.4 mph28.0 kmh 2.2 mph3.5 kmh 8.0 mph12.9 kmh
Humidity 80% 33% 54%
Pressure 30.74 in1041.0 mb 30.65 in1037.9 mb -
Precipitation 0.00 in0.0 mm - -
Hour Temp Dew Point Humidity Winds Wind Gusts Pressure Precip Precip Rate Daily Precip Total
12:00 AM 62.6°F17.0°C 50.7°F10.4°C 65% 2.2 mph NE3.5 kmh NE 3.8 mph6.1 kmh 30.72 in1040.3 mb 0.00 in0.0 mm 0.00 in0.0 mm 0.00 in0.0 mm
12:15 AM 61.7°F16.5°C 50.2°F10.1°C 66% 1.6 mph NE2.6 kmh NE 2.2 mph3.5 kmh 30.73 in1040.6 mb 0.00 in0.0 mm 0.00 in0.0 mm 0.00 in0.0 mm
12:30 AM 61.0°F16.1°C 50.3°F10.2°C 68% 1.6 mph NE2.6 kmh NE 3.1 mph5.0 kmh 30.72 in1040.3 mb 0.00 in0.0 mm 0.00 in0.0 mm 0.00 in0.0 mm
12:45 AM 60.1°F15.6°C 50.3°F10.2°C 70% 2.2 mph NE3.5 kmh NE 3.1 mph5.0 kmh 30.72 in1040.3 mb 0.00 in0.0 mm 0.00 in0.0 mm 0.00 in0.0 mm
01:00 AM 59.7°F15.4°C 49.9°F9.9°C 70% 2.2 mph NE3.5 kmh NE 3.1 mph5.0 kmh 30.72 in1040.3 mb 0.00 in0.0 mm 0.00 in0.0 mm 0.00 in0.0 mm
01:15 AM 59.0°F15.0°C 49.6°F9.8°C 71% 3.1 mph NE5.0 kmh NE 4.5 mph7.2 kmh 30.72 in1040.3 mb 0.00 in0.0 mm 0.00 in0.0 mm 0.00 in0.0 mm
01:30 AM 58.6°F14.8°C 49.6°F9.8°C 72% 2.2 mph N3.5 kmh N 4.5 mph7.2 kmh 30.72 in1040.3 mb 0.00 in0.0 mm 0.00 in0.0 mm 0.00 in0.0 mm
01:45 AM 58.3°F14.6°C 49.3°F9.6°C 72% 1.6 mph N2.6 kmh N 3.1 mph5.0 kmh 30.72 in1040.3 mb 0.00 in0.0 mm 0.00 in0.0 mm 0.00 in0.0 mm
02:00 AM 57.9°F14.4°C 49.3°F9.6°C 73% 3.1 mph N5.0 kmh N 4.5 mph7.2 kmh 30.73 in1040.6 mb 0.00 in0.0 mm 0.00 in0.0 mm 0.00 in0.0 mm
02:15 AM 57.7°F14.3°C 49.5°F9.7°C 74% 2.2 mph NNE3.5 kmh NNE 3.8 mph6.1 kmh 30.72 in1040.3 mb 0.00 in0.0 mm 0.00 in0.0 mm 0.00 in0.0 mm
02:30 AM 57.4°F14.1°C 49.2°F9.6°C 74% 3.1 mph NNE5.0 kmh NNE 3.8 mph6.1 kmh 30.72 in1040.3 mb 0.00 in0.0 mm 0.00 in0.0 mm 0.00 in0.0 mm
02:45 AM 57.0°F13.9°C 49.2°F9.6°C 75% 3.1 mph NE5.0 kmh NE 3.8 mph6.1 kmh 30.73 in1040.6 mb 0.00 in0.0 mm 0.00 in0.0 mm 0.00 in0.0 mm
03:00 AM 56.7°F13.7°C 49.2°F9.6°C 76% 3.1 mph NNE5.0 kmh NNE 3.8 mph6.1 kmh 30.72 in1040.3 mb 0.00 in0.0 mm 0.00 in0.0 mm 0.00 in0.0 mm
03:15 AM 56.3°F13.5°C 49.2°F9.6°C 77% 3.1 mph N5.0 kmh N 3.8 mph6.1 kmh 30.72 in1040.3 mb 0.00 in0.0 mm 0.00 in0.0 mm 0.00 in0.0 mm
03:30 AM 56.1°F13.4°C 49.4°F9.7°C 78% 2.2 mph NE3.5 kmh NE 3.1 mph5.0 kmh 30.72 in1040.3 mb 0.00 in0.0 mm 0.00 in0.0 mm 0.00 in0.0 mm
03:45 AM 55.8°F13.2°C 49.3°F9.6°C 79% 2.2 mph NE3.5 kmh NE 3.8 mph6.1 kmh 30.72 in1040.3 mb 0.00 in0.0 mm 0.00 in0.0 mm 0.00 in0.0 mm
04:00 AM 55.6°F13.1°C 49.2°F9.6°C 79% 1.6 mph NE2.6 kmh NE 3.1 mph5.0 kmh 30.71 in1040.0 mb 0.00 in0.0 mm 0.00 in0.0 mm 0.00 in0.0 mm
04:15 AM 55.6°F13.1°C 49.5°F9.7°C 80% 3.1 mph NE5.0 kmh NE 3.8 mph6.1 kmh 30.72 in1040.3 mb 0.00 in0.0 mm 0.00 in0.0 mm 0.00 in0.0 mm
04:30 AM 55.4°F13.0°C 49.3°F9.6°C 80% 3.1 mph N5.0 kmh N 4.5 mph7.2 kmh 30.72 in1040.3 mb 0.00 in0.0 mm 0.00 in0.0 mm 0.00 in0.0 mm
04:45 AM 55.4°F13.0°C 49.3°F9.6°C 80% 3.1 mph NNE5.0 kmh NNE 4.5 mph7.2 kmh 30.72 in1040.3 mb 0.00 in0.0 mm 0.00 in0.0 mm 0.00 in0.0 mm
05:00 AM 55.6°F13.1°C 49.5°F9.7°C 80% 3.1 mph NNE5.0 kmh NNE 4.5 mph7.2 kmh 30.72 in1040.3 mb 0.00 in0.0 mm 0.00 in0.0 mm 0.00 in0.0 mm
05:15 AM 55.8°F13.2°C 49.7°F9.8°C 80% 3.1 mph NE5.0 kmh NE 3.1 mph5.0 kmh 30.73 in1040.6 mb 0.00 in0.0 mm 0.00 in0.0 mm 0.00 in0.0 mm
05:30 AM 56.3°F13.5°C 50.2°F10.1°C 80% 2.2 mph N3.5 kmh N 3.8 mph6.1 kmh 30.73 in1040.6 mb 0.00 in0.0 mm 0.00 in0.0 mm 0.00 in0.0 mm
05:45 AM 57.0°F13.9°C 50.9°F10.5°C 80% 2.2 mph NNE3.5 kmh NNE 3.1 mph5.0 kmh 30.73 in1040.6 mb 0.00 in0.0 mm 0.00 in0.0 mm 0.00 in0.0 mm
06:00 AM 58.1°F14.5°C 52.0°F11.1°C 80% 1.6 mph NNE2.6 kmh NNE 3.8 mph6.1 kmh 30.73 in1040.6 mb 0.00 in0.0 mm 0.00 in0.0 mm 0.00 in0.0 mm
06:15 AM 59.5°F15.3°C 52.3°F11.3°C 77% 1.6 mph NE2.6 kmh NE 5.4 mph8.7 kmh 30.73 in1040.6 mb 0.00 in0.0 mm 0.00 in0.0 mm 0.00 in0.0 mm
06:30 AM 61.0°F16.1°C 53.0°F11.7°C 75% 2.2 mph NE3.5 kmh NE 5.4 mph8.7 kmh 30.73 in1040.6 mb 0.00 in0.0 mm 0.00 in0.0 mm 0.00 in0.0 mm
06:45 AM 62.4°F16.9°C 53.6°F12.0°C 73% 3.1 mph NE5.0 kmh NE 6.0 mph9.7 kmh 30.73 in1040.6 mb 0.00 in0.0 mm 0.00 in0.0 mm 0.00 in0.0 mm
07:00 AM 63.3°F17.4°C 54.1°F12.3°C 72% 3.1 mph NE5.0 kmh NE 4.5 mph7.2 kmh 30.73 in1040.6 mb 0.00 in0.0 mm 0.00 in0.0 mm 0.00 in0.0 mm
07:15 AM 65.5°F18.6°C 53.4°F11.9°C 65% 6.0 mph E9.7 kmh E 8.3 mph13.4 kmh 30.73 in1040.6 mb 0.00 in0.0 mm 0.00 in0.0 mm 0.00 in0.0 mm
07:30 AM 66.7°F19.3°C 53.7°F12.1°C 63% 6.9 mph E11.1 kmh E 8.3 mph13.4 kmh 30.73 in1040.6 mb 0.00 in0.0 mm 0.00 in0.0 mm 0.00 in0.0 mm
07:45 AM 68.0°F20.0°C 54.5°F12.5°C 62% 3.1 mph ESE5.0 kmh ESE 8.3 mph13.4 kmh 30.74 in1041.0 mb 0.00 in0.0 mm 0.00 in0.0 mm 0.00 in0.0 mm
08:00 AM 69.4°F20.8°C 55.4°F13.0°C 61% 6.9 mph ESE11.1 kmh ESE 9.8 mph15.8 kmh 30.73 in1040.6 mb 0.00 in0.0 mm 0.00 in0.0 mm 0.00 in0.0 mm
08:15 AM 70.9°F21.6°C 56.3°F13.5°C 60% 3.1 mph ESE5.0 kmh ESE 9.2 mph14.8 kmh 30.73 in1040.6 mb 0.00 in0.0 mm 0.00 in0.0 mm 0.00 in0.0 mm
08:30 AM 72.0°F22.2°C 56.4°F13.6°C 58% 5.4 mph E8.7 kmh E 8.3 mph13.4 kmh 30.74 in1041.0 mb 0.00 in0.0 mm 0.00 in0.0 mm 0.00 in0.0 mm
08:45 AM 73.4°F23.0°C 54.2°F12.3°C 51% 6.0 mph E9.7 kmh E 10.7 mph17.2 kmh 30.73 in1040.6 mb 0.00 in0.0 mm 0.00 in0.0 mm 0.00 in0.0 mm
09:00 AM 74.5°F23.6°C 54.6°F12.6°C 50% 6.0 mph E9.7 kmh E 10.7 mph17.2 kmh 30.74 in1041.0 mb 0.00 in0.0 mm 0.00 in0.0 mm 0.00 in0.0 mm
09:15 AM 75.7°F24.3°C 53.5°F11.9°C 46% 6.9 mph E11.1 kmh E 12.1 mph19.5 kmh 30.74 in1041.0 mb 0.00 in0.0 mm 0.00 in0.0 mm 0.00 in0.0 mm
09:30 AM 76.8°F24.9°C 53.3°F11.8°C 44% 7.6 mph SE12.2 kmh SE 14.5 mph23.3 kmh 30.73 in1040.6 mb 0.00 in0.0 mm 0.00 in0.0 mm 0.00 in0.0 mm
09:45 AM 77.9°F25.5°C 53.6°F12.0°C 43% 5.4 mph E8.7 kmh E 15.9 mph25.6 kmh 30.73 in1040.6 mb 0.00 in0.0 mm 0.00 in0.0 mm 0.00 in0.0 mm
10:00 AM 78.1°F25.6°C 53.1°F11.7°C 42% 13.0 mph E20.9 kmh E 17.4 mph28.0 kmh 30.73 in1040.6 mb 0.00 in0.0 mm 0.00 in0.0 mm 0.00 in0.0 mm
10:15 AM 78.1°F25.6°C 52.5°F11.4°C 41% 3.8 mph E6.1 kmh E 15.9 mph25.6 kmh 30.73 in1040.6 mb 0.00 in0.0 mm 0.00 in0.0 mm 0.00 in0.0 mm
10:30 AM 78.4°F25.8°C 52.8°F11.6°C 41% 12.1 mph SE19.5 kmh SE 16.8 mph27.0 kmh 30.72 in1040.3 mb 0.00 in0.0 mm 0.00 in0.0 mm 0.00 in0.0 mm
10:45 AM 79.0°F26.1°C 52.6°F11.4°C 40% 15.2 mph ESE24.5 kmh ESE 16.8 mph27.0 kmh 30.72 in1040.3 mb 0.00 in0.0 mm 0.00 in0.0 mm 0.00 in0.0 mm
11:00 AM 79.2°F26.2°C 52.8°F11.6°C 40% 8.3 mph ESE13.4 kmh ESE 16.8 mph27.0 kmh 30.72 in1040.3 mb 0.00 in0.0 mm 0.00 in0.0 mm 0.00 in0.0 mm
11:15 AM 79.5°F26.4°C 53.8°F12.1°C 41% 6.0 mph ESE9.7 kmh ESE 13.0 mph20.9 kmh 30.71 in1040.0 mb 0.00 in0.0 mm 0.00 in0.0 mm 0.00 in0.0 mm
11:30 AM 79.7°F26.5°C 53.2°F11.8°C 40% 7.6 mph E12.2 kmh E 11.4 mph18.3 kmh 30.71 in1040.0 mb 0.00 in0.0 mm 0.00 in0.0 mm 0.00 in0.0 mm
11:45 AM 79.7°F26.5°C 53.2°F11.8°C 40% 6.9 mph E11.1 kmh E 14.5 mph23.3 kmh 30.71 in1040.0 mb 0.00 in0.0 mm 0.00 in0.0 mm 0.00 in0.0 mm
12:00 PM 80.1°F26.7°C 53.6°F12.0°C 40% 8.3 mph SE13.4 kmh SE 14.5 mph23.3 kmh 30.70 in1039.6 mb 0.00 in0.0 mm 0.00 in0.0 mm 0.00 in0.0 mm
12:15 PM 80.8°F27.1°C 54.2°F12.3°C 40% 6.9 mph E11.1 kmh E 13.6 mph21.9 kmh 30.71 in1040.0 mb 0.00 in0.0 mm 0.00 in0.0 mm 0.00 in0.0 mm
12:30 PM 80.6°F27.0°C 54.0°F12.2°C 40% 8.3 mph SE13.4 kmh SE 13.0 mph20.9 kmh 30.71 in1040.0 mb 0.00 in0.0 mm 0.00 in0.0 mm 0.00 in0.0 mm
12:45 PM 81.0°F27.2°C 54.4°F12.4°C 40% 4.5 mph E7.2 kmh E 9.8 mph15.8 kmh 30.70 in1039.6 mb 0.00 in0.0 mm 0.00 in0.0 mm 0.00 in0.0 mm
01:00 PM 81.3°F27.4°C 54.7°F12.6°C 40% 6.0 mph NE9.7 kmh NE 9.8 mph15.8 kmh 30.70 in1039.6 mb 0.00 in0.0 mm 0.00 in0.0 mm 0.00 in0.0 mm
01:15 PM 81.5°F27.5°C 52.0°F11.1°C 36% 5.4 mph E8.7 kmh E 13.0 mph20.9 kmh 30.69 in1039.3 mb 0.00 in0.0 mm 0.00 in0.0 mm 0.00 in0.0 mm
01:30 PM 81.9°F27.7°C 50.7°F10.4°C 34% 9.2 mph E14.8 kmh E 15.9 mph25.6 kmh 30.69 in1039.3 mb 0.00 in0.0 mm 0.00 in0.0 mm 0.00 in0.0 mm
01:45 PM 81.9°F27.7°C 50.7°F10.4°C 34% 3.8 mph ENE6.1 kmh ENE 13.0 mph20.9 kmh 30.68 in1038.9 mb 0.00 in0.0 mm 0.00 in0.0 mm 0.00 in0.0 mm
02:00 PM 82.6°F28.1°C 51.4°F10.8°C 34% 6.9 mph ESE11.1 kmh ESE 13.0 mph20.9 kmh 30.68 in1038.9 mb 0.00 in0.0 mm 0.00 in0.0 mm 0.00 in0.0 mm
02:15 PM 82.4°F28.0°C 50.4°F10.2°C 33% 3.8 mph E6.1 kmh E 14.5 mph23.3 kmh 30.68 in1038.9 mb 0.00 in0.0 mm 0.00 in0.0 mm 0.00 in0.0 mm
02:30 PM 82.4°F28.0°C 50.4°F10.2°C 33% 6.0 mph E9.7 kmh E 13.6 mph21.9 kmh 30.68 in1038.9 mb 0.00 in0.0 mm 0.00 in0.0 mm 0.00 in0.0 mm
02:45 PM 82.2°F27.9°C 50.2°F10.1°C 33% 6.9 mph ESE11.1 kmh ESE 10.7 mph17.2 kmh 30.68 in1038.9 mb 0.00 in0.0 mm 0.00 in0.0 mm 0.00 in0.0 mm
03:00 PM 82.4°F28.0°C 50.4°F10.2°C 33% 3.8 mph E6.1 kmh E 10.7 mph17.2 kmh 30.67 in1038.6 mb 0.00 in0.0 mm 0.00 in0.0 mm 0.00 in0.0 mm
03:15 PM 82.4°F28.0°C 51.2°F10.7°C 34% 5.4 mph ENE8.7 kmh ENE 10.7 mph17.2 kmh 30.67 in1038.6 mb 0.00 in0.0 mm 0.00 in0.0 mm 0.00 in0.0 mm
03:30 PM 82.4°F28.0°C 51.2°F10.7°C 34% 1.6 mph SE2.6 kmh SE 10.7 mph17.2 kmh 30.66 in1038.3 mb 0.00 in0.0 mm 0.00 in0.0 mm 0.00 in0.0 mm
03:45 PM 82.6°F28.1°C 51.4°F10.8°C 34% 6.9 mph SE11.1 kmh SE 13.6 mph21.9 kmh 30.67 in1038.6 mb 0.00 in0.0 mm 0.00 in0.0 mm 0.00 in0.0 mm
04:00 PM 82.8°F28.2°C 50.7°F10.4°C 33% 6.0 mph ENE9.7 kmh ENE 9.8 mph15.8 kmh 30.66 in1038.3 mb 0.00 in0.0 mm 0.00 in0.0 mm 0.00 in0.0 mm
04:15 PM 82.4°F28.0°C 51.2°F10.7°C 34% 3.8 mph E6.1 kmh E 9.8 mph15.8 kmh 30.66 in1038.3 mb 0.00 in0.0 mm 0.00 in0.0 mm 0.00 in0.0 mm
04:30 PM 82.4°F28.0°C 51.2°F10.7°C 34% 3.1 mph E5.0 kmh E 10.7 mph17.2 kmh 30.66 in1038.3 mb 0.00 in0.0 mm 0.00 in0.0 mm 0.00 in0.0 mm
04:45 PM 81.5°F27.5°C 51.2°F10.7°C 35% 3.8 mph NE6.1 kmh NE 10.7 mph17.2 kmh 30.66 in1038.3 mb 0.00 in0.0 mm 0.00 in0.0 mm 0.00 in0.0 mm
05:00 PM 81.0°F27.2°C 54.4°F12.4°C 40% 3.8 mph ENE6.1 kmh ENE 10.7 mph17.2 kmh 30.65 in1037.9 mb 0.00 in0.0 mm 0.00 in0.0 mm 0.00 in0.0 mm
05:15 PM 80.2°F26.8°C 53.7°F12.1°C 40% 3.1 mph ENE5.0 kmh ENE 8.3 mph13.4 kmh 30.66 in1038.3 mb 0.00 in0.0 mm 0.00 in0.0 mm 0.00 in0.0 mm
05:30 PM 79.2°F26.2°C 53.4°F11.9°C 41% 5.4 mph NE8.7 kmh NE 6.9 mph11.1 kmh 30.66 in1038.3 mb 0.00 in0.0 mm 0.00 in0.0 mm 0.00 in0.0 mm
05:45 PM 78.3°F25.7°C 53.3°F11.8°C 42% 3.8 mph NE6.1 kmh NE 6.0 mph9.7 kmh 30.66 in1038.3 mb 0.00 in0.0 mm 0.00 in0.0 mm 0.00 in0.0 mm
06:00 PM 77.4°F25.2°C 52.5°F11.4°C 42% 3.1 mph NE5.0 kmh NE 5.4 mph8.7 kmh 30.67 in1038.6 mb 0.00 in0.0 mm 0.00 in0.0 mm 0.00 in0.0 mm
06:15 PM 76.6°F24.8°C 52.5°F11.4°C 43% 2.2 mph NE3.5 kmh NE 5.4 mph8.7 kmh 30.67 in1038.6 mb 0.00 in0.0 mm 0.00 in0.0 mm 0.00 in0.0 mm
06:30 PM 75.9°F24.4°C 52.4°F11.3°C 44% 3.1 mph NE5.0 kmh NE 4.5 mph7.2 kmh 30.67 in1038.6 mb 0.00 in0.0 mm 0.00 in0.0 mm 0.00 in0.0 mm
06:45 PM 75.2°F24.0°C 51.8°F11.0°C 44% 1.6 mph NE2.6 kmh NE 5.4 mph8.7 kmh 30.67 in1038.6 mb 0.00 in0.0 mm 0.00 in0.0 mm 0.00 in0.0 mm
07:00 PM 74.7°F23.7°C 51.9°F11.1°C 45% 3.1 mph NE5.0 kmh NE 4.5 mph7.2 kmh 30.68 in1038.9 mb 0.00 in0.0 mm 0.00 in0.0 mm 0.00 in0.0 mm
07:15 PM 73.8°F23.2°C 51.7°F10.9°C 46% 3.1 mph NE5.0 kmh NE 7.6 mph12.2 kmh 30.68 in1038.9 mb 0.00 in0.0 mm 0.00 in0.0 mm 0.00 in0.0 mm
07:30 PM 73.0°F22.8°C 51.6°F10.9°C 47% 2.2 mph NE3.5 kmh NE 3.8 mph6.1 kmh 30.68 in1038.9 mb 0.00 in0.0 mm 0.00 in0.0 mm 0.00 in0.0 mm
07:45 PM 72.1°F22.3°C 53.0°F11.7°C 51% 2.2 mph NE3.5 kmh NE 4.5 mph7.2 kmh 30.68 in1038.9 mb 0.00 in0.0 mm 0.00 in0.0 mm 0.00 in0.0 mm
08:00 PM 71.2°F21.8°C 53.2°F11.8°C 53% 3.8 mph NNE6.1 kmh NNE 4.5 mph7.2 kmh 30.68 in1038.9 mb 0.00 in0.0 mm 0.00 in0.0 mm 0.00 in0.0 mm
08:15 PM 70.9°F21.6°C 52.9°F11.6°C 53% 3.1 mph NNE5.0 kmh NNE 8.3 mph13.4 kmh 30.69 in1039.3 mb 0.00 in0.0 mm 0.00 in0.0 mm 0.00 in0.0 mm
08:30 PM 70.5°F21.4°C 53.1°F11.7°C 54% 4.5 mph NNE7.2 kmh NNE 6.0 mph9.7 kmh 30.68 in1038.9 mb 0.00 in0.0 mm 0.00 in0.0 mm 0.00 in0.0 mm
08:45 PM 70.7°F21.5°C 53.2°F11.8°C 54% 5.4 mph NNE8.7 kmh NNE 8.3 mph13.4 kmh 30.68 in1038.9 mb 0.00 in0.0 mm 0.00 in0.0 mm 0.00 in0.0 mm
09:00 PM 70.7°F21.5°C 53.2°F11.8°C 54% 2.2 mph NNE3.5 kmh NNE 6.9 mph11.1 kmh 30.68 in1038.9 mb 0.00 in0.0 mm 0.00 in0.0 mm 0.00 in0.0 mm
09:15 PM 70.5°F21.4°C 53.1°F11.7°C 54% 6.0 mph NNE9.7 kmh NNE 9.8 mph15.8 kmh 30.69 in1039.3 mb 0.00 in0.0 mm 0.00 in0.0 mm 0.00 in0.0 mm
09:30 PM 70.3°F21.3°C 53.4°F11.9°C 55% 3.8 mph NE6.1 kmh NE 8.3 mph13.4 kmh 30.69 in1039.3 mb 0.00 in0.0 mm 0.00 in0.0 mm 0.00 in0.0 mm
09:45 PM 70.2°F21.2°C 53.2°F11.8°C 55% 4.5 mph NE7.2 kmh NE 6.9 mph11.1 kmh 30.69 in1039.3 mb 0.00 in0.0 mm 0.00 in0.0 mm 0.00 in0.0 mm
10:00 PM 70.0°F21.1°C 53.1°F11.7°C 55% 5.4 mph NE8.7 kmh NE 6.9 mph11.1 kmh 30.69 in1039.3 mb 0.00 in0.0 mm 0.00 in0.0 mm 0.00 in0.0 mm
10:15 PM 69.6°F20.9°C 53.2°F11.8°C 56% 1.6 mph NE2.6 kmh NE 6.0 mph9.7 kmh 30.70 in1039.6 mb 0.00 in0.0 mm 0.00 in0.0 mm 0.00 in0.0 mm
10:30 PM 69.3°F20.7°C 53.4°F11.9°C 57% 3.1 mph NE5.0 kmh NE 9.2 mph14.8 kmh 30.70 in1039.6 mb 0.00 in0.0 mm 0.00 in0.0 mm 0.00 in0.0 mm
10:45 PM 69.3°F20.7°C 53.4°F11.9°C 57% 3.1 mph NE5.0 kmh NE 6.9 mph11.1 kmh 30.70 in1039.6 mb 0.00 in0.0 mm 0.00 in0.0 mm 0.00 in0.0 mm
11:00 PM 69.1°F20.6°C 53.2°F11.8°C 57% 1.6 mph NE2.6 kmh NE 6.0 mph9.7 kmh 30.70 in1039.6 mb 0.00 in0.0 mm 0.00 in0.0 mm 0.00 in0.0 mm
11:15 PM 69.1°F20.6°C 53.7°F12.1°C 58% 6.0 mph ENE9.7 kmh ENE 8.3 mph13.4 kmh 30.69 in1039.3 mb 0.00 in0.0 mm 0.00 in0.0 mm 0.00 in0.0 mm
11:30 PM 68.9°F20.5°C 53.5°F11.9°C 58% 3.1 mph ENE5.0 kmh ENE 7.6 mph12.2 kmh 30.70 in1039.6 mb 0.00 in0.0 mm 0.00 in0.0 mm 0.00 in0.0 mm
11:45 PM 68.7°F20.4°C 53.8°F12.1°C 59% 3.8 mph ENE6.1 kmh ENE 6.9 mph11.1 kmh 30.69 in1039.3 mb 0.00 in0.0 mm 0.00 in0.0 mm 0.00 in0.0 mm